createdAt,value
2023-04-26T00:00:02.126Z,2.40
2023-04-26T00:02:36.171Z,2.33
2023-04-26T00:05:05.263Z,2.57
2023-04-26T00:07:34.077Z,2.40
2023-04-26T00:10:02.215Z,2.60
2023-04-26T00:12:30.714Z,2.23
2023-04-26T00:14:58.872Z,2.30
2023-04-26T00:17:26.941Z,2.37
2023-04-26T00:19:57.561Z,2.40
2023-04-26T00:22:25.681Z,2.43
2023-04-26T00:24:54.080Z,2.80
2023-04-26T00:27:22.161Z,2.63
2023-04-26T00:29:50.281Z,2.90
2023-04-26T00:32:18.411Z,3.00
2023-04-26T00:34:48.283Z,2.90
2023-04-26T00:37:21.500Z,2.30
2023-04-26T00:39:50.042Z,2.30
2023-04-26T00:42:19.433Z,2.73
2023-04-26T00:44:47.559Z,2.63
2023-04-26T00:47:15.586Z,2.40
2023-04-26T00:49:43.766Z,2.60
2023-04-26T00:52:11.844Z,2.60
2023-04-26T00:54:42.255Z,2.70
2023-04-26T00:57:10.801Z,2.43
2023-04-26T00:59:38.921Z,2.60
2023-04-26T01:02:06.972Z,2.17
2023-04-26T01:04:35.201Z,2.50
2023-04-26T01:07:03.963Z,2.63
2023-04-26T01:09:34.700Z,2.10
2023-04-26T01:12:04.276Z,2.90
2023-04-26T01:14:32.969Z,2.23
2023-04-26T01:17:01.596Z,2.67
2023-04-26T01:19:29.839Z,2.30
2023-04-26T01:21:58.232Z,2.40
2023-04-26T01:24:28.543Z,2.67
2023-04-26T01:26:57.486Z,2.10
2023-04-26T01:29:25.618Z,2.30
2023-04-26T01:31:53.805Z,2.53
2023-04-26T01:34:21.875Z,2.13
2023-04-26T01:36:50.334Z,1.80
2023-04-26T01:39:18.486Z,2.20
2023-04-26T01:41:47.916Z,1.90
2023-04-26T01:44:16.174Z,2.20
2023-04-26T01:46:45.041Z,2.33
2023-04-26T01:49:14.362Z,2.17
2023-04-26T01:51:42.523Z,1.97
2023-04-26T01:54:10.574Z,2.10
2023-04-26T01:56:38.698Z,2.17
2023-04-26T01:59:08.208Z,2.00
2023-04-26T02:01:36.284Z,1.90
2023-04-26T02:04:05.417Z,2.30
2023-04-26T02:06:33.463Z,1.90
2023-04-26T02:09:01.554Z,2.23
2023-04-26T02:11:29.658Z,2.47
2023-04-26T02:13:59.249Z,2.17
2023-04-26T02:16:29.213Z,2.60
2023-04-26T02:18:57.571Z,2.30
2023-04-26T02:21:26.748Z,2.23
2023-04-26T02:23:54.900Z,2.17
2023-04-26T02:26:23.025Z,2.40
2023-04-26T02:28:51.666Z,2.20
2023-04-26T02:31:21.736Z,2.57
2023-04-26T02:33:52.768Z,2.53
2023-04-26T02:36:20.819Z,2.53
2023-04-26T02:38:48.952Z,2.63
2023-04-26T02:41:17.095Z,2.73
2023-04-26T02:43:45.746Z,3.03
2023-04-26T02:46:17.183Z,3.17
2023-04-26T02:48:45.579Z,2.80
2023-04-26T02:51:16.098Z,3.30
2023-04-26T02:53:44.200Z,3.60
2023-04-26T02:56:12.649Z,2.87
2023-04-26T02:58:40.746Z,3.10
2023-04-26T03:01:08.840Z,3.47
2023-04-26T03:03:37.367Z,3.33
2023-04-26T03:06:06.405Z,3.10
2023-04-26T03:08:36.769Z,2.63
2023-04-26T03:11:05.512Z,2.93
2023-04-26T03:13:33.734Z,3.20
2023-04-26T03:16:02.114Z,3.33
2023-04-26T03:18:30.715Z,2.93
2023-04-26T03:20:58.927Z,2.70
2023-04-26T03:23:27.410Z,2.83
2023-04-26T03:25:57.318Z,2.90
2023-04-26T03:28:25.473Z,2.60
2023-04-26T03:30:53.547Z,3.20
2023-04-26T03:33:22.109Z,3.03
2023-04-26T03:35:51.628Z,2.70
2023-04-26T03:38:20.209Z,3.00
2023-04-26T03:40:48.407Z,2.80
2023-04-26T03:43:17.972Z,2.80
2023-04-26T03:45:48.874Z,3.47
2023-04-26T03:48:17.487Z,3.23
2023-04-26T03:50:46.701Z,2.87
2023-04-26T03:53:14.764Z,2.83
2023-04-26T03:55:43.246Z,2.50
2023-04-26T03:58:11.365Z,2.97
2023-04-26T04:00:41.145Z,2.87
2023-04-26T04:03:09.455Z,2.60
2023-04-26T04:05:38.268Z,2.73
2023-04-26T04:08:06.781Z,2.43
2023-04-26T04:10:35.051Z,2.80
2023-04-26T04:13:03.162Z,2.93
2023-04-26T04:15:31.819Z,2.60
2023-04-26T04:18:02.010Z,2.93
2023-04-26T04:20:30.171Z,2.80
2023-04-26T04:22:59.001Z,3.03
2023-04-26T04:25:27.182Z,2.77
2023-04-26T04:27:58.355Z,2.77
2023-04-26T04:30:26.898Z,2.73
2023-04-26T04:32:55.889Z,3.30
2023-04-26T04:35:28.625Z,3.47
2023-04-26T04:37:57.800Z,4.40
2023-04-26T04:40:26.771Z,8.43
2023-04-26T04:42:56.037Z,8.53
2023-04-26T04:45:27.175Z,5.13
2023-04-26T04:47:57.027Z,3.87
2023-04-26T04:50:26.720Z,4.27
2023-04-26T04:52:54.873Z,4.00
2023-04-26T04:55:23.348Z,3.70
2023-04-26T04:57:51.519Z,5.07
2023-04-26T05:00:21.663Z,4.60
2023-04-26T05:03:16.090Z,4.43
2023-04-26T05:05:45.699Z,6.30
2023-04-26T05:08:13.806Z,6.83
2023-04-26T05:10:42.005Z,4.20
2023-04-26T05:13:10.677Z,5.17
2023-04-26T05:15:39.957Z,4.57
2023-04-26T05:18:08.106Z,6.00
2023-04-26T05:20:36.228Z,5.03
2023-04-26T05:23:06.785Z,3.87
2023-04-26T05:25:38.512Z,5.47
2023-04-26T05:28:26.130Z,4.63
2023-04-26T05:31:16.961Z,3.57
2023-04-26T05:33:58.158Z,3.90
2023-04-26T05:36:32.244Z,3.20
2023-04-26T05:39:01.737Z,3.67
2023-04-26T05:41:30.415Z,3.80
2023-04-26T05:43:58.557Z,4.13
2023-04-26T05:46:27.326Z,3.40
2023-04-26T05:48:56.555Z,3.53
2023-04-26T05:51:24.852Z,4.47
2023-04-26T05:53:53.206Z,4.47
2023-04-26T05:56:26.840Z,4.13
2023-04-26T05:58:54.997Z,4.07
2023-04-26T06:01:23.107Z,3.57
2023-04-26T06:03:51.957Z,3.77
2023-04-26T06:06:24.106Z,3.97
2023-04-26T06:08:53.015Z,4.50
2023-04-26T06:11:21.563Z,3.80
2023-04-26T06:13:51.425Z,3.90
2023-04-26T06:16:20.075Z,3.63
2023-04-26T06:18:49.492Z,3.20
2023-04-26T06:21:17.586Z,3.17
2023-04-26T06:23:46.703Z,3.70
2023-04-26T06:26:14.857Z,3.03
2023-04-26T06:28:43.039Z,3.07
2023-04-26T06:31:12.581Z,2.77
2023-04-26T06:33:41.154Z,2.27
2023-04-26T06:36:12.980Z,2.70
2023-04-26T06:38:42.746Z,3.13
2023-04-26T06:41:10.908Z,3.00
2023-04-26T06:43:39.095Z,2.80
2023-04-26T06:46:09.246Z,3.00
2023-04-26T06:48:38.840Z,3.30
2023-04-26T06:51:08.534Z,2.50
2023-04-26T06:53:36.940Z,2.50
2023-04-26T06:56:05.258Z,2.50
2023-04-26T06:58:33.357Z,2.43
2023-04-26T07:01:01.458Z,2.60
2023-04-26T07:03:29.697Z,1.97
2023-04-26T07:05:59.274Z,2.53
2023-04-26T07:08:27.334Z,2.37
2023-04-26T07:10:55.476Z,2.43
2023-04-26T07:13:23.610Z,2.23
2023-04-26T07:15:52.040Z,2.43
2023-04-26T07:18:20.565Z,2.10
2023-04-26T07:20:48.598Z,2.80
2023-04-26T07:23:18.101Z,2.50
2023-04-26T07:25:46.143Z,2.00
2023-04-26T07:28:14.665Z,2.60
2023-04-26T07:30:42.961Z,2.00
2023-04-26T07:33:11.455Z,2.30
2023-04-26T07:35:39.567Z,2.27
2023-04-26T07:38:09.087Z,2.30
2023-04-26T07:40:38.635Z,2.10
2023-04-26T07:43:06.826Z,2.10
2023-04-26T07:45:34.932Z,2.27
2023-04-26T07:48:03.115Z,2.10
2023-04-26T07:50:31.288Z,2.00
2023-04-26T07:52:59.326Z,2.50
2023-04-26T07:55:27.483Z,2.10
2023-04-26T07:57:58.230Z,2.00
2023-04-26T08:00:26.513Z,2.50
2023-04-26T08:02:54.891Z,2.20
2023-04-26T08:05:23.522Z,2.00
2023-04-26T08:07:51.720Z,1.77
2023-04-26T08:10:19.809Z,1.60
2023-04-26T08:12:48.362Z,2.10
2023-04-26T08:15:17.855Z,1.90
2023-04-26T08:17:45.994Z,2.03
2023-04-26T08:20:14.410Z,2.10
2023-04-26T08:22:42.488Z,2.17
2023-04-26T08:25:11.514Z,2.30
2023-04-26T08:27:40.454Z,2.10
2023-04-26T08:30:09.630Z,2.37
2023-04-26T08:32:39.164Z,2.30
2023-04-26T08:35:07.847Z,1.77
2023-04-26T08:37:35.972Z,2.13
2023-04-26T08:40:04.972Z,1.87
2023-04-26T08:42:33.003Z,2.00
2023-04-26T08:45:02.387Z,2.20
2023-04-26T08:47:32.027Z,2.30
2023-04-26T08:50:03.710Z,1.80
2023-04-26T08:52:32.514Z,2.03
2023-04-26T08:55:01.243Z,2.00
2023-04-26T08:57:29.373Z,2.40
2023-04-26T08:59:58.407Z,1.77
2023-04-26T09:02:26.656Z,2.23
2023-04-26T09:04:54.980Z,2.47
2023-04-26T09:07:32.024Z,1.67
2023-04-26T09:10:00.972Z,1.87
2023-04-26T09:12:29.335Z,1.90
2023-04-26T09:14:57.754Z,1.60
2023-04-26T09:17:26.896Z,1.83
2023-04-26T09:19:55.028Z,1.53
2023-04-26T09:22:31.707Z,1.80
2023-04-26T09:24:59.850Z,2.00
2023-04-26T09:27:38.101Z,1.50
2023-04-26T09:30:09.380Z,2.00
2023-04-26T09:32:52.264Z,1.83
2023-04-26T09:35:24.094Z,1.50
2023-04-26T09:38:01.882Z,2.33
2023-04-26T09:40:35.930Z,1.43
2023-04-26T09:43:05.073Z,1.70
2023-04-26T09:45:34.424Z,2.00
2023-04-26T09:48:16.957Z,1.93
2023-04-26T09:50:45.839Z,2.43
2023-04-26T09:53:28.332Z,1.97
2023-04-26T09:55:56.608Z,2.00
2023-04-26T09:58:24.770Z,1.40
2023-04-26T10:00:53.211Z,1.83
2023-04-26T10:03:21.623Z,1.47
2023-04-26T10:05:49.885Z,1.50
2023-04-26T10:08:19.593Z,1.40
2023-04-26T10:10:47.753Z,1.70
2023-04-26T10:13:16.513Z,1.80
2023-04-26T10:15:44.637Z,1.67
2023-04-26T10:18:13.172Z,1.83
2023-04-26T10:20:42.667Z,1.80
2023-04-26T10:23:17.241Z,1.90
2023-04-26T10:25:48.238Z,2.00
2023-04-26T10:28:17.674Z,1.70
2023-04-26T10:30:58.053Z,1.70
2023-04-26T10:33:27.310Z,2.03
2023-04-26T10:36:16.105Z,1.60
2023-04-26T10:39:00.130Z,1.63
2023-04-26T10:41:33.786Z,1.70
2023-04-26T10:44:17.853Z,2.00
2023-04-26T10:46:47.287Z,1.73
2023-04-26T10:49:19.148Z,1.70
2023-04-26T10:52:16.062Z,2.50
2023-04-26T10:55:02.651Z,2.10
2023-04-26T10:57:51.633Z,1.90
2023-04-26T11:00:32.463Z,1.60
2023-04-26T11:03:08.837Z,1.70
2023-04-26T11:05:42.903Z,1.57
2023-04-26T11:08:17.022Z,1.60
2023-04-26T11:10:47.241Z,2.20
2023-04-26T11:13:18.093Z,1.73
2023-04-26T11:15:46.367Z,1.60
2023-04-26T11:18:14.490Z,1.73
2023-04-26T11:20:42.572Z,1.80
2023-04-26T11:23:11.132Z,1.80
2023-04-26T11:25:40.672Z,1.93
2023-04-26T11:28:09.400Z,1.70
2023-04-26T11:30:38.999Z,1.70
2023-04-26T11:33:07.135Z,1.60
2023-04-26T11:35:36.052Z,1.60
2023-04-26T11:38:05.434Z,1.73
2023-04-26T11:40:34.232Z,1.57
2023-04-26T11:43:03.583Z,1.60
2023-04-26T11:45:33.046Z,1.83
2023-04-26T11:48:03.387Z,1.80
2023-04-26T11:50:32.848Z,1.40
2023-04-26T11:53:03.333Z,2.03
2023-04-26T11:55:32.216Z,2.07
2023-04-26T11:58:00.441Z,1.60
2023-04-26T12:00:28.893Z,1.63
2023-04-26T12:02:58.322Z,1.50
2023-04-26T12:05:30.703Z,1.80
2023-04-26T12:07:59.814Z,2.10
2023-04-26T12:10:28.846Z,1.53
2023-04-26T12:12:57.472Z,1.60
2023-04-26T12:15:26.063Z,2.00
2023-04-26T12:17:57.918Z,1.80
2023-04-26T12:20:32.410Z,1.67
2023-04-26T12:23:01.374Z,1.87
2023-04-26T12:25:29.572Z,1.73
2023-04-26T12:27:57.827Z,2.00
2023-04-26T12:30:27.331Z,1.63
2023-04-26T12:33:15.568Z,2.23
2023-04-26T12:35:47.857Z,1.73
2023-04-26T12:38:15.991Z,1.47
2023-04-26T12:40:45.303Z,2.00
2023-04-26T12:43:13.461Z,2.27
2023-04-26T12:45:41.562Z,2.00
2023-04-26T12:48:09.722Z,2.10
2023-04-26T12:50:38.274Z,2.30
2023-04-26T12:53:07.944Z,1.70
2023-04-26T12:55:36.161Z,1.80
2023-04-26T12:58:04.266Z,1.90
2023-04-26T13:00:32.365Z,2.03
2023-04-26T13:03:01.565Z,2.00
2023-04-26T13:05:30.105Z,2.00
2023-04-26T13:07:58.299Z,1.80
2023-04-26T13:10:28.053Z,1.90
2023-04-26T13:12:57.955Z,1.83
2023-04-26T13:15:26.952Z,1.70
2023-04-26T13:17:55.223Z,2.00
2023-04-26T13:20:25.731Z,2.30
2023-04-26T13:22:54.824Z,2.07
2023-04-26T13:25:23.495Z,1.80
2023-04-26T13:27:54.804Z,2.40
2023-04-26T13:30:23.327Z,1.80
2023-04-26T13:32:51.792Z,2.00
2023-04-26T13:35:20.114Z,2.10
2023-04-26T13:37:48.382Z,2.20
2023-04-26T13:40:17.181Z,1.93
2023-04-26T13:42:45.284Z,2.00
2023-04-26T13:45:16.612Z,2.00
2023-04-26T13:47:45.760Z,2.17
2023-04-26T13:50:13.906Z,1.73
2023-04-26T13:52:42.038Z,2.00
2023-04-26T13:55:10.534Z,2.47
2023-04-26T13:57:38.758Z,1.83
2023-04-26T14:00:08.772Z,2.03
2023-04-26T14:02:41.323Z,2.90
2023-04-26T14:05:10.482Z,2.27
2023-04-26T14:07:38.714Z,2.17
2023-04-26T14:10:07.830Z,2.20
2023-04-26T14:12:36.292Z,1.90
2023-04-26T14:15:06.040Z,2.00
2023-04-26T14:17:34.258Z,2.10
2023-04-26T14:20:04.018Z,2.00
2023-04-26T14:22:32.088Z,2.20
2023-04-26T14:25:00.191Z,2.00
2023-04-26T14:27:28.645Z,2.47
2023-04-26T14:29:56.944Z,1.97
2023-04-26T14:32:25.058Z,1.97
2023-04-26T14:34:53.485Z,1.90
2023-04-26T14:37:24.039Z,1.70
2023-04-26T14:39:53.542Z,2.20
2023-04-26T14:42:21.545Z,2.17
2023-04-26T14:44:49.835Z,1.87
2023-04-26T14:47:17.944Z,1.80
2023-04-26T14:49:46.241Z,1.90
2023-04-26T14:52:14.349Z,2.23
2023-04-26T14:54:46.687Z,2.50
2023-04-26T14:57:16.211Z,1.90
2023-04-26T14:59:44.555Z,1.80
2023-04-26T15:02:12.726Z,2.10
2023-04-26T15:04:41.231Z,1.97
2023-04-26T15:07:15.228Z,2.70
2023-04-26T15:09:51.418Z,1.83
2023-04-26T15:12:19.592Z,1.60
2023-04-26T15:14:47.708Z,2.10
2023-04-26T15:17:15.743Z,1.70
2023-04-26T15:19:44.025Z,2.10
2023-04-26T15:22:12.212Z,2.03
2023-04-26T15:24:40.335Z,2.20
2023-04-26T15:27:10.530Z,2.00
2023-04-26T15:29:38.648Z,2.00
2023-04-26T15:32:06.809Z,2.40
2023-04-26T15:34:40.087Z,2.37
2023-04-26T15:37:08.197Z,1.73
2023-04-26T15:39:36.836Z,2.30
2023-04-26T15:42:05.600Z,1.90
2023-04-26T15:44:35.108Z,2.37
2023-04-26T15:47:03.834Z,3.13
2023-04-26T15:49:32.368Z,2.00
2023-04-26T15:52:00.738Z,2.23
2023-04-26T15:54:28.862Z,2.00
2023-04-26T15:56:56.884Z,1.90
2023-04-26T15:59:25.399Z,2.03
2023-04-26T16:01:55.160Z,1.97
2023-04-26T16:04:23.785Z,2.00
2023-04-26T16:06:52.014Z,1.90
2023-04-26T16:09:24.965Z,1.97
2023-04-26T16:11:53.956Z,2.10
2023-04-26T16:14:22.460Z,2.37
2023-04-26T16:16:51.035Z,2.10
2023-04-26T16:19:20.481Z,2.07
2023-04-26T16:21:48.862Z,2.20
2023-04-26T16:24:16.940Z,1.90
2023-04-26T16:26:45.081Z,2.20
2023-04-26T16:29:13.289Z,2.00
2023-04-26T16:31:41.810Z,1.80
2023-04-26T16:34:09.911Z,2.07
2023-04-26T16:36:39.763Z,1.90
2023-04-26T16:39:07.986Z,2.10
2023-04-26T16:41:36.101Z,2.73
2023-04-26T16:44:04.615Z,1.90
2023-04-26T16:46:32.721Z,2.30
2023-04-26T16:49:00.929Z,2.23
2023-04-26T16:51:29.075Z,2.40
2023-04-26T16:53:58.597Z,2.53
2023-04-26T16:56:26.739Z,2.10
2023-04-26T16:58:55.750Z,2.50
2023-04-26T17:01:23.915Z,1.90
2023-04-26T17:03:52.334Z,2.23
2023-04-26T17:06:20.680Z,2.47
2023-04-26T17:08:48.790Z,2.37
2023-04-26T17:11:18.793Z,2.27
2023-04-26T17:13:47.031Z,2.37
2023-04-26T17:16:15.185Z,2.63
2023-04-26T17:18:43.566Z,2.53
2023-04-26T17:21:12.135Z,2.20
2023-04-26T17:23:40.251Z,2.57
2023-04-26T17:26:08.312Z,2.40
2023-04-26T17:28:39.010Z,2.70
2023-04-26T17:31:07.162Z,2.73
2023-04-26T17:33:36.848Z,2.43
2023-04-26T17:36:05.381Z,2.33
2023-04-26T17:38:34.064Z,2.27
2023-04-26T17:41:02.140Z,2.30
2023-04-26T17:43:30.214Z,2.53
2023-04-26T17:45:59.917Z,2.53
2023-04-26T17:48:29.145Z,2.53
2023-04-26T17:50:58.106Z,2.03
2023-04-26T17:53:26.526Z,2.50
2023-04-26T17:55:55.283Z,2.23
2023-04-26T17:58:23.387Z,2.40
2023-04-26T18:00:51.702Z,2.40
2023-04-26T18:03:21.694Z,2.60
2023-04-26T18:05:50.715Z,2.87
2023-04-26T18:08:18.831Z,2.83
2023-04-26T18:10:48.441Z,2.90
2023-04-26T18:13:16.943Z,2.70
2023-04-26T18:15:45.118Z,2.83
2023-04-26T18:18:13.361Z,2.60
2023-04-26T18:20:42.916Z,2.97
2023-04-26T18:23:11.070Z,2.77
2023-04-26T18:25:39.148Z,2.40
2023-04-26T18:28:08.694Z,2.60
2023-04-26T18:30:36.846Z,3.37
2023-04-26T18:33:06.187Z,2.30
2023-04-26T18:35:34.556Z,3.10
2023-04-26T18:38:04.737Z,2.97
2023-04-26T18:40:33.598Z,2.83
2023-04-26T18:43:02.057Z,3.27
2023-04-26T18:45:31.166Z,3.03
2023-04-26T18:47:59.438Z,2.83
2023-04-26T18:50:27.557Z,2.57
2023-04-26T18:52:55.712Z,2.47
2023-04-26T18:55:25.922Z,2.37
2023-04-26T18:57:54.582Z,2.40
2023-04-26T19:00:22.932Z,2.90
2023-04-26T19:02:51.523Z,2.73
2023-04-26T19:05:20.236Z,2.63
2023-04-26T19:07:50.026Z,2.87
2023-04-26T19:10:20.722Z,2.83
2023-04-26T19:12:50.687Z,2.73
2023-04-26T19:15:18.784Z,2.60
2023-04-26T19:17:50.471Z,2.60
2023-04-26T19:20:20.111Z,2.53
2023-04-26T19:22:48.207Z,2.77
2023-04-26T19:25:20.390Z,2.33
2023-04-26T19:27:50.362Z,2.50
2023-04-26T19:30:18.475Z,2.70
2023-04-26T19:32:46.779Z,3.13
2023-04-26T19:35:15.134Z,2.47
2023-04-26T19:37:43.219Z,2.63
2023-04-26T19:40:12.134Z,2.63
2023-04-26T19:42:40.150Z,2.50
2023-04-26T19:45:11.085Z,2.93
2023-04-26T19:47:41.762Z,2.40
2023-04-26T19:50:10.758Z,2.87
2023-04-26T19:52:39.500Z,2.73
2023-04-26T19:55:10.479Z,2.53
2023-04-26T19:57:38.690Z,2.40
2023-04-26T20:00:11.682Z,3.03
2023-04-26T20:02:39.861Z,2.60
2023-04-26T20:05:09.367Z,2.80
2023-04-26T20:07:37.849Z,3.33
2023-04-26T20:10:07.110Z,2.50
2023-04-26T20:12:35.205Z,2.70
2023-04-26T20:15:03.469Z,3.60
2023-04-26T20:17:33.045Z,3.43
2023-04-26T20:20:02.172Z,3.07
2023-04-26T20:22:30.285Z,3.13
2023-04-26T20:24:58.383Z,3.20
2023-04-26T20:27:28.062Z,2.70
2023-04-26T20:29:56.408Z,2.73
2023-04-26T20:32:24.687Z,3.10
2023-04-26T20:34:55.488Z,3.40
2023-04-26T20:37:23.550Z,3.03
2023-04-26T20:39:51.641Z,3.23
2023-04-26T20:42:19.795Z,3.27
2023-04-26T20:44:47.848Z,2.97
2023-04-26T20:47:16.331Z,3.60
2023-04-26T20:49:44.428Z,3.53
2023-04-26T20:52:14.030Z,3.23
2023-04-26T20:54:42.103Z,3.07
2023-04-26T20:57:10.236Z,2.97
2023-04-26T20:59:38.324Z,2.83
2023-04-26T21:02:07.800Z,3.20
2023-04-26T21:04:38.676Z,3.23
2023-04-26T21:07:07.115Z,3.23
2023-04-26T21:09:36.609Z,3.00
2023-04-26T21:12:04.842Z,3.47
2023-04-26T21:14:32.917Z,3.17
2023-04-26T21:17:01.796Z,3.10
2023-04-26T21:19:29.840Z,2.90
2023-04-26T21:21:57.907Z,3.40
2023-04-26T21:24:25.960Z,3.53
2023-04-26T21:26:55.447Z,2.90
2023-04-26T21:29:23.988Z,3.37
2023-04-26T21:31:52.141Z,2.83
2023-04-26T21:34:20.373Z,2.70
2023-04-26T21:36:48.464Z,2.90
2023-04-26T21:39:16.546Z,3.20
2023-04-26T21:41:44.632Z,3.33
2023-04-26T21:44:14.351Z,3.70
2023-04-26T21:46:42.471Z,3.40
2023-04-26T21:49:11.510Z,3.03
2023-04-26T21:51:39.866Z,3.23
2023-04-26T21:54:08.091Z,3.33
2023-04-26T21:56:36.605Z,3.60
2023-04-26T21:59:04.895Z,3.77
2023-04-26T22:01:34.459Z,3.43
2023-04-26T22:04:02.799Z,3.30
2023-04-26T22:06:31.003Z,3.37
2023-04-26T22:08:59.107Z,3.73
2023-04-26T22:11:27.629Z,3.23
2023-04-26T22:13:55.722Z,3.07
2023-04-26T22:16:23.836Z,3.83
2023-04-26T22:18:53.587Z,3.67
2023-04-26T22:21:22.291Z,3.77
2023-04-26T22:23:50.433Z,3.43
2023-04-26T22:26:18.934Z,3.97
2023-04-26T22:28:47.028Z,3.70
2023-04-26T22:31:15.312Z,3.50
2023-04-26T22:33:43.569Z,3.57
2023-04-26T22:36:13.005Z,3.30
2023-04-26T22:38:41.444Z,3.13
2023-04-26T22:41:09.523Z,2.73
2023-04-26T22:43:37.807Z,2.77
2023-04-26T22:46:06.061Z,3.10
2023-04-26T22:48:34.118Z,3.00
2023-04-26T22:51:02.207Z,3.03
2023-04-26T22:53:33.043Z,3.47
2023-04-26T22:56:01.177Z,3.47
2023-04-26T22:58:29.240Z,2.80
2023-04-26T23:00:57.362Z,3.30
2023-04-26T23:03:25.639Z,3.00
2023-04-26T23:05:54.128Z,3.27
2023-04-26T23:08:22.230Z,3.03
2023-04-26T23:10:51.690Z,3.40
2023-04-26T23:13:19.765Z,3.27
2023-04-26T23:15:47.808Z,2.50
2023-04-26T23:18:16.338Z,2.90
2023-04-26T23:20:44.892Z,2.37
2023-04-26T23:23:13.070Z,2.43
2023-04-26T23:25:42.245Z,2.50
2023-04-26T23:28:12.024Z,2.53
2023-04-26T23:30:40.112Z,2.33
2023-04-26T23:33:08.693Z,2.57
2023-04-26T23:35:41.625Z,2.70
2023-04-26T23:38:09.750Z,2.67
2023-04-26T23:40:38.100Z,2.40
2023-04-26T23:43:06.391Z,2.73
2023-04-26T23:45:35.877Z,2.70
2023-04-26T23:48:04.605Z,2.63
2023-04-26T23:50:32.652Z,2.80
2023-04-26T23:53:00.793Z,2.83
2023-04-26T23:55:29.188Z,2.93
2023-04-26T23:57:57.305Z,2.80
